Time;durP1;ratioP1;P1;durP2;ratioP2;P2;SDS_P1;SDS_P2;PMS_P1;PMS_P2;Temp;Humidity;BMP_temperature;BMP_pressure;BME280_temperature;BME280_humidity;BME280_pressure;Samples;Min_cycle;Max_cycle;Signal;HPM_P1;HPM_P2
2021/05/20 00:03:54;;;;;;;17.3;11.1;;;;;;;9.95;100;98313.89;;;;
2021/05/20 00:13:53;;;;;;;13.7;11;;;;;;;9.71;100;98308.06;;;;
2021/05/20 00:23:52;;;;;;;14.3;11.7;;;;;;;9.65;100;98313.88;;;;
2021/05/20 00:33:50;;;;;;;14.9;11.4;;;;;;;9.51;100;98306.66;;;;
2021/05/20 00:43:49;;;;;;;11.6;10.1;;;;;;;9.56;100;98321.89;;;;
2021/05/20 00:53:48;;;;;;;20;11.3;;;;;;;9.43;100;98314.69;;;;
2021/05/20 01:03:47;;;;;;;16.2;12.4;;;;;;;9.45;100;98329.41;;;;
2021/05/20 01:13:45;;;;;;;17.1;8.6;;;;;;;9.43;100;98336.2;;;;
2021/05/20 01:23:44;;;;;;;13.8;10.2;;;;;;;9.32;100;98334.84;;;;
2021/05/20 01:33:43;;;;;;;12.8;10.4;;;;;;;9.25;100;98318.34;;;;
2021/05/20 01:43:42;;;;;;;13.6;9.4;;;;;;;9.18;100;98328.72;;;;
2021/05/20 01:53:40;;;;;;;12.9;10.4;;;;;;;9.26;100;98330.7;;;;
2021/05/20 02:03:39;;;;;;;13;10.3;;;;;;;9.12;100;98320;;;;
2021/05/20 02:13:38;;;;;;;14.7;10.9;;;;;;;8.98;100;98330.8;;;;
2021/05/20 02:23:36;;;;;;;15.3;10.9;;;;;;;8.76;100;98336.11;;;;
2021/05/20 02:33:35;;;;;;;18.7;13.3;;;;;;;8.41;100;98340.32;;;;
2021/05/20 02:43:33;;;;;;;20.2;10.3;;;;;;;8.21;100;98342.58;;;;
2021/05/20 02:53:33;;;;;;;15;12.6;;;;;;;7.93;100;98353.28;;;;
2021/05/20 03:03:33;;;;;;;14.7;12.5;;;;;;;7.75;100;98356.81;;;;
2021/05/20 03:13:29;;;;;;;17.3;10.8;;;;;;;7.71;100;98365.73;;;;
2021/05/20 03:23:28;;;;;;;16.4;12.8;;;;;;;7.74;100;98378.58;;;;
2021/05/20 03:33:26;;;;;;;19.6;12;;;;;;;8.08;100;98382.55;;;;
2021/05/20 03:43:25;;;;;;;17.7;13;;;;;;;8.37;100;98390.34;;;;
2021/05/20 03:53:25;;;;;;;15;13.4;;;;;;;8.62;100;98391.73;;;;
2021/05/20 04:03:22;;;;;;;15.9;13.2;;;;;;;8.93;100;98392.7;;;;
2021/05/20 04:13:20;;;;;;;15.2;13.6;;;;;;;9.2;100;98401.83;;;;
2021/05/20 04:23:19;;;;;;;13.9;11.5;;;;;;;9.59;100;98401.98;;;;
2021/05/20 04:33:18;;;;;;;13;10.9;;;;;;;9.78;100;98424.14;;;;
2021/05/20 04:43:17;;;;;;;16.3;11.2;;;;;;;9.84;100;98432.88;;;;
2021/05/20 04:53:15;;;;;;;18.3;13.6;;;;;;;10.2;100;98441.72;;;;
2021/05/20 05:03:14;;;;;;;14.1;12.2;;;;;;;10.56;100;98449.64;;;;
2021/05/20 05:13:13;;;;;;;18.7;14.1;;;;;;;10.94;100;98460.73;;;;
2021/05/20 05:23:12;;;;;;;14.9;11.4;;;;;;;11.11;100;98464.27;;;;
2021/05/20 05:33:11;;;;;;;14.6;11.2;;;;;;;11.26;100;98456.84;;;;
2021/05/20 05:43:10;;;;;;;10.5;8.9;;;;;;;11.43;100;98463.07;;;;
2021/05/20 05:53:09;;;;;;;13.5;9.6;;;;;;;11.91;100;98460.25;;;;
2021/05/20 06:03:08;;;;;;;15.7;10.2;;;;;;;11.85;100;98466.13;;;;
2021/05/20 06:13:07;;;;;;;16;11;;;;;;;11.84;100;98468.03;;;;
2021/05/20 06:23:07;;;;;;;21;9.5;;;;;;;11.74;100;98473.76;;;;
2021/05/20 06:33:06;;;;;;;13;9.8;;;;;;;12.03;100;98476.63;;;;
2021/05/20 06:43:05;;;;;;;11.9;10;;;;;;;12.56;100;98472.7;;;;
2021/05/20 06:53:04;;;;;;;15.3;11.4;;;;;;;13.29;100;98471.45;;;;
2021/05/20 07:03:04;;;;;;;18.3;12.7;;;;;;;13.61;100;98473.45;;;;
2021/05/20 07:13:04;;;;;;;20.3;11.8;;;;;;;13;100;98483.03;;;;
2021/05/20 07:23:02;;;;;;;12.8;10.4;;;;;;;12.72;100;98484.57;;;;
2021/05/20 07:33:01;;;;;;;14.1;9.5;;;;;;;12.8;100;98486.46;;;;
2021/05/20 07:43:00;;;;;;;12.8;11.2;;;;;;;13.19;100;98484.56;;;;
2021/05/20 07:52:59;;;;;;;22.9;10;;;;;;;14;100;98484.94;;;;
2021/05/20 08:03:03;;;;;;;20.9;11.3;;;;;;;14.13;100;98492.78;;;;
2021/05/20 08:12:58;;;;;;;5;2.9;;;;;;;14.37;97.03711;98489.4;;;;
2021/05/20 08:22:57;;;;;;;6.2;2.8;;;;;;;14.12;89.91895;98501.27;;;;
2021/05/20 08:32:56;;;;;;;9.9;3.5;;;;;;;14.68;90.87305;98494.36;;;;
2021/05/20 08:42:56;;;;;;;6.1;3.7;;;;;;;15.19;90.99805;98500.28;;;;
2021/05/20 08:52:55;;;;;;;5.4;2.8;;;;;;;14.95;85.05566;98515.43;;;;
2021/05/20 09:02:55;;;;;;;4.5;2.1;;;;;;;15.91;85.22754;98500.2;;;;
2021/05/20 09:12:54;;;;;;;5;3.1;;;;;;;15.58;88.83008;98511.25;;;;
2021/05/20 09:22:54;;;;;;;3.2;1.7;;;;;;;15.42;84.04199;98504.91;;;;
2021/05/20 09:32:54;;;;;;;4.6;2.1;;;;;;;15.47;84.2666;98512.04;;;;
2021/05/20 09:42:53;;;;;;;5.7;2.8;;;;;;;16.24;82.64551;98507.36;;;;
2021/05/20 09:52:52;;;;;;;3.3;1.8;;;;;;;15.86;80.33984;98514.02;;;;
2021/05/20 10:02:52;;;;;;;4.9;1.8;;;;;;;15.69;80.41211;98514.28;;;;
2021/05/20 10:12:51;;;;;;;6.4;1.8;;;;;;;16.16;80.63281;98513.72;;;;
2021/05/20 10:22:51;;;;;;;4;1.9;;;;;;;16.89;81.10938;98495.13;;;;
2021/05/20 10:32:51;;;;;;;3.9;1.9;;;;;;;16.25;74.20313;98495.31;;;;
2021/05/20 10:42:50;;;;;;;3.2;1.2;;;;;;;16.22;71.6709;98496.81;;;;
2021/05/20 10:52:50;;;;;;;3.1;1.4;;;;;;;16.45;66.8584;98486.19;;;;
2021/05/20 11:02:53;;;;;;;1.6;0.7;;;;;;;16.59;62.65527;98476.47;;;;
2021/05/20 11:12:56;;;;;;;2.6;1.3;;;;;;;16.44;62.82813;98473.7;;;;
2021/05/20 11:22:49;;;;;;;2.7;1.3;;;;;;;17.03;58.22949;98487.31;;;;
2021/05/20 11:32:53;;;;;;;1.3;0.4;;;;;;;17.25;52.78125;98473.03;;;;
2021/05/20 11:42:48;;;;;;;1.8;0.6;;;;;;;16.71;53.41895;98491.15;;;;
2021/05/20 11:52:47;;;;;;;1.8;0.9;;;;;;;17.42;55.27148;98483.55;;;;
2021/05/20 12:02:47;;;;;;;2.6;0.8;;;;;;;17.52;54.12891;98484.96;;;;
2021/05/20 12:12:49;;;;;;;4.6;1.7;;;;;;;16.99;50.54688;98486.42;;;;
2021/05/20 12:22:46;;;;;;;1.3;0.5;;;;;;;17.55;49.80176;98497.88;;;;
2021/05/20 12:32:46;;;;;;;2.2;1.1;;;;;;;17.31;51.22949;98496.16;;;;
2021/05/20 12:42:46;;;;;;;1.2;0.5;;;;;;;17.97;45.67188;98490.66;;;;
2021/05/20 12:52:55;;;;;;;2.1;0.7;;;;;;;17.91;47.69043;98485.84;;;;
2021/05/20 13:02:45;;;;;;;1.9;0.8;;;;;;;17.02;49.61523;98489.23;;;;
2021/05/20 13:12:45;;;;;;;1.3;0.6;;;;;;;17.8;43.93945;98471.98;;;;
2021/05/20 13:22:45;;;;;;;1.2;0.6;;;;;;;17.43;45.31445;98487.07;;;;
2021/05/20 13:32:49;;;;;;;2.5;0.9;;;;;;;17.63;44.57031;98486.02;;;;
2021/05/20 13:42:44;;;;;;;2.5;0.8;;;;;;;18.23;48.77832;98479.08;;;;
2021/05/20 13:52:44;;;;;;;2.2;0.7;;;;;;;18.6;43.33398;98476.7;;;;
2021/05/20 14:02:43;;;;;;;3.9;1;;;;;;;18.64;43.18652;98474.04;;;;
2021/05/20 14:12:45;;;;;;;1.6;0.6;;;;;;;18.37;44.11133;98490.27;;;;
2021/05/20 14:22:43;;;;;;;2.4;0.5;;;;;;;18.57;42.7041;98482.86;;;;
2021/05/20 14:32:42;;;;;;;1.5;0.8;;;;;;;19.38;41.83887;98486.17;;;;
2021/05/20 14:42:42;;;;;;;1.7;0.7;;;;;;;19.05;38.63379;98489.58;;;;
2021/05/20 14:52:44;;;;;;;2.9;1.2;;;;;;;18.26;41.51367;98493.93;;;;
2021/05/20 15:12:47;;;;;;;2;0.7;;;;;;;21.91;35.2627;98481.8;;;;
2021/05/20 15:22:42;;;;;;;4.3;1.2;;;;;;;21.89;33.71387;98499.8;;;;
2021/05/20 15:32:42;;;;;;;1.2;0.5;;;;;;;23.31;30.96191;98492.73;;;;
2021/05/20 15:42:44;;;;;;;2.8;1.3;;;;;;;23.1;31.55957;98490.77;;;;
2021/05/20 15:52:43;;;;;;;63.6;21.6;;;;;;;22.93;31.11133;98486.05;;;;
2021/05/20 16:02:43;;;;;;;5.4;0.8;;;;;;;22.03;33.31445;98489.71;;;;
2021/05/20 16:12:57;;;;;;;1.9;0.7;;;;;;;22.42;32.36816;98500.06;;;;
2021/05/20 16:22:50;;;;;;;2;0.8;;;;;;;25.03;28.25488;98509.84;;;;
2021/05/20 16:42:48;;;;;;;2.6;0.6;;;;;;;26.39;27.74707;98516.42;;;;
2021/05/20 16:52:46;;;;;;;1.9;0.7;;;;;;;26.47;27.05176;98515.14;;;;
2021/05/20 17:02:47;;;;;;;2.5;1;;;;;;;25.88;27.37207;98512.66;;;;
2021/05/20 17:12:48;;;;;;;2.4;1.2;;;;;;;21.82;33.14551;98518.97;;;;
2021/05/20 17:22:49;;;;;;;2.3;0.9;;;;;;;19.69;37.60645;98524.16;;;;
2021/05/20 17:32:49;;;;;;;5.6;1.7;;;;;;;18.67;40.83203;98516.98;;;;
2021/05/20 17:42:48;;;;;;;4.1;1.6;;;;;;;18.79;41.86621;98536.71;;;;
2021/05/20 17:52:48;;;;;;;5.2;2.3;;;;;;;17.94;42.9668;98539.66;;;;
2021/05/20 18:02:49;;;;;;;7.4;2.7;;;;;;;17.08;47.91211;98546.94;;;;
2021/05/20 18:12:50;;;;;;;3.3;1.8;;;;;;;15.77;51.66211;98565.01;;;;
2021/05/20 18:22:47;;;;;;;4.9;3.2;;;;;;;15.17;54.45117;98571.19;;;;
2021/05/20 18:32:46;;;;;;;25.7;20.1;;;;;;;14.52;58.08203;98570.13;;;;
2021/05/20 18:42:47;;;;;;;9.1;5.1;;;;;;;13.98;59.0625;98579.33;;;;
2021/05/20 18:52:45;;;;;;;3.5;1.8;;;;;;;13.4;60.69629;98585.53;;;;
2021/05/20 19:02:45;;;;;;;3.8;2.3;;;;;;;12.68;62.48828;98605.31;;;;
2021/05/20 19:12:43;;;;;;;5.9;3;;;;;;;12;73.19727;98628.52;;;;
2021/05/20 19:22:43;;;;;;;7.7;3.5;;;;;;;11.74;74.08105;98624.16;;;;
2021/05/20 19:32:41;;;;;;;7.3;4.1;;;;;;;11.45;77.2793;98616.59;;;;
2021/05/20 19:42:39;;;;;;;7;4.2;;;;;;;11.1;79.3877;98613.75;;;;
2021/05/20 19:52:46;;;;;;;12.2;6.8;;;;;;;11.02;83.21875;98622.58;;;;
2021/05/20 20:02:39;;;;;;;11.2;7.2;;;;;;;10.52;82.91016;98635.4;;;;
2021/05/20 20:12:36;;;;;;;14;8.8;;;;;;;10.17;88.41895;98641.59;;;;
2021/05/20 20:22:39;;;;;;;14.4;8.2;;;;;;;9.92;93.79785;98650.2;;;;
2021/05/20 20:32:35;;;;;;;9.1;7;;;;;;;10;92.02051;98662.94;;;;
2021/05/20 20:42:32;;;;;;;10;6.6;;;;;;;10.03;92.71094;98662.36;;;;
2021/05/20 20:52:30;;;;;;;11.2;7.3;;;;;;;9.86;93.31543;98657.58;;;;
2021/05/20 21:02:29;;;;;;;8.2;6.7;;;;;;;9.52;93.83496;98665.26;;;;
2021/05/20 21:12:28;;;;;;;10;8;;;;;;;9.43;95.75195;98667.05;;;;
2021/05/20 21:22:26;;;;;;;13;7.2;;;;;;;9.16;94.66406;98664.33;;;;
2021/05/20 21:32:25;;;;;;;10;7.1;;;;;;;8.91;98.57617;98652.92;;;;
2021/05/20 21:42:23;;;;;;;10.7;7.2;;;;;;;8.75;100;98648.88;;;;
2021/05/20 21:52:22;;;;;;;10.3;6.8;;;;;;;8.7;100;98656.23;;;;
2021/05/20 22:02:20;;;;;;;8.4;7.1;;;;;;;8.71;100;98658.61;;;;
2021/05/20 22:12:25;;;;;;;11.1;8.4;;;;;;;8.65;100;98654.41;;;;
2021/05/20 22:22:17;;;;;;;16.3;9.7;;;;;;;8.67;100;98657.63;;;;
2021/05/20 22:32:19;;;;;;;19.8;10.7;;;;;;;8.66;100;98656.02;;;;
2021/05/20 22:42:14;;;;;;;15.9;10.2;;;;;;;8.62;100;98670.32;;;;
2021/05/20 22:52:13;;;;;;;13;9.9;;;;;;;8.51;100;98658.94;;;;
2021/05/20 23:02:11;;;;;;;16.9;12.9;;;;;;;8.49;100;98661.13;;;;
2021/05/20 23:12:10;;;;;;;19.9;13.6;;;;;;;8.5;100;98652.75;;;;
2021/05/20 23:22:08;;;;;;;15.3;10.4;;;;;;;8.47;100;98647.17;;;;
2021/05/20 23:32:07;;;;;;;18.1;13.3;;;;;;;8.36;100;98651.13;;;;
2021/05/20 23:42:05;;;;;;;13.6;10.3;;;;;;;8.28;100;98649.05;;;;
2021/05/20 23:52:03;;;;;;;15.3;12;;;;;;;8.07;100;98654.7;;;;
